createdAt,value
2023-05-01T00:00:12.351Z,94613.78
2023-05-01T00:02:14.193Z,94612.31
2023-05-01T00:04:17.143Z,94607.13
2023-05-01T00:06:18.957Z,94614.91
2023-05-01T00:08:20.578Z,94610.19
2023-05-01T00:10:22.162Z,94613.16
2023-05-01T00:12:24.240Z,94611.28
2023-05-01T00:14:25.971Z,94607.03
2023-05-01T00:16:27.637Z,94603.94
2023-05-01T00:18:32.433Z,94606.91
2023-05-01T00:20:34.005Z,94597.31
2023-05-01T00:22:35.603Z,94605.38
2023-05-01T00:24:37.453Z,94609.66
2023-05-01T00:26:39.292Z,94610.38
2023-05-01T00:28:40.865Z,94610.63
2023-05-01T00:30:42.565Z,94606.22
2023-05-01T00:32:44.282Z,94609.81
2023-05-01T00:34:47.796Z,94610.31
2023-05-01T00:36:50.012Z,94615.91
2023-05-01T00:38:52.470Z,94615.25
2023-05-01T00:40:54.081Z,94620.19
2023-05-01T00:42:56.731Z,94618.38
2023-05-01T00:44:58.674Z,94621.09
2023-05-01T00:47:02.350Z,94630.28
2023-05-01T00:49:04.323Z,94628.34
2023-05-01T00:51:07.686Z,94631.28
2023-05-01T00:53:09.371Z,94624.00
2023-05-01T00:55:12.518Z,94630.81
2023-05-01T00:57:15.322Z,94630.34
2023-05-01T00:59:17.092Z,94632.88
2023-05-01T01:01:19.725Z,94633.34
2023-05-01T01:03:21.679Z,94635.13
2023-05-01T01:05:25.968Z,94630.97
2023-05-01T01:07:37.309Z,94637.81
2023-05-01T01:09:51.021Z,94632.69
2023-05-01T01:12:14.565Z,94635.47
2023-05-01T01:14:20.084Z,94635.31
2023-05-01T01:16:31.133Z,94644.19
2023-05-01T01:18:32.959Z,94634.34
2023-05-01T01:20:49.888Z,94638.59
2023-05-01T01:23:00.565Z,94639.22
2023-05-01T01:25:17.573Z,94640.69
2023-05-01T01:27:46.675Z,94643.78
2023-05-01T01:30:07.194Z,94643.97
2023-05-01T01:32:17.605Z,94649.22
2023-05-01T01:34:40.520Z,94642.03
2023-05-01T01:36:44.910Z,94648.41
2023-05-01T01:38:47.465Z,94654.47
2023-05-01T01:41:20.454Z,94659.44
2023-05-01T01:43:23.382Z,94651.44
2023-05-01T01:45:36.895Z,94654.38
2023-05-01T01:47:41.777Z,94652.91
2023-05-01T01:49:47.307Z,94653.19
2023-05-01T01:51:50.376Z,94648.44
2023-05-01T01:53:54.150Z,94647.69
2023-05-01T01:55:57.476Z,94649.13
2023-05-01T01:57:59.876Z,94648.63
2023-05-01T02:00:01.506Z,94643.84
2023-05-01T02:02:04.287Z,94632.03
2023-05-01T02:04:07.472Z,94635.13
2023-05-01T02:06:10.680Z,94645.44
2023-05-01T02:08:13.528Z,94643.09
2023-05-01T02:10:16.300Z,94645.72
2023-05-01T02:12:18.587Z,94642.25
2023-05-01T02:14:20.600Z,94633.53
2023-05-01T02:16:25.381Z,94637.16
2023-05-01T02:18:29.705Z,94634.84
2023-05-01T02:20:31.433Z,94633.50
2023-05-01T02:22:33.706Z,94630.06
2023-05-01T02:24:36.090Z,94628.75
2023-05-01T02:26:45.698Z,94628.56
2023-05-01T02:28:47.425Z,94632.97
2023-05-01T02:30:49.230Z,94638.09
2023-05-01T02:32:50.895Z,94636.03
2023-05-01T02:34:52.591Z,94648.84
2023-05-01T02:36:54.193Z,94646.38
2023-05-01T02:38:56.185Z,94642.16
2023-05-01T02:40:58.637Z,94641.03
2023-05-01T02:43:01.163Z,94638.41
2023-05-01T02:45:04.709Z,94646.81
2023-05-01T02:47:07.873Z,94642.53
2023-05-01T02:49:09.681Z,94643.84
2023-05-01T02:51:12.137Z,94642.56
2023-05-01T02:53:15.743Z,94647.00
2023-05-01T02:55:17.538Z,94649.44
2023-05-01T02:57:20.481Z,94651.91
2023-05-01T02:59:22.183Z,94650.09
2023-05-01T03:01:24.328Z,94652.34
2023-05-01T03:03:27.964Z,94650.38
2023-05-01T03:05:29.605Z,94646.09
2023-05-01T03:07:35.239Z,94646.91
2023-05-01T03:09:37.170Z,94641.66
2023-05-01T03:11:38.824Z,94642.13
2023-05-01T03:13:40.393Z,94646.38
2023-05-01T03:15:42.399Z,94644.91
2023-05-01T03:17:44.154Z,94649.38
2023-05-01T03:19:45.824Z,94658.56
2023-05-01T03:21:47.489Z,94660.06
2023-05-01T03:23:49.254Z,94647.78
2023-05-01T03:25:51.396Z,94654.84
2023-05-01T03:27:54.950Z,94653.03
2023-05-01T03:29:57.432Z,94658.13
2023-05-01T03:31:59.167Z,94654.38
2023-05-01T03:34:00.889Z,94667.31
2023-05-01T03:36:04.262Z,94667.97
2023-05-01T03:38:06.106Z,94672.72
2023-05-01T03:40:08.456Z,94668.13
2023-05-01T03:42:10.101Z,94672.03
2023-05-01T03:44:11.732Z,94677.94
2023-05-01T03:46:13.399Z,94684.50
2023-05-01T03:48:15.082Z,94690.41
2023-05-01T03:50:16.817Z,94691.72
2023-05-01T03:52:18.468Z,94693.56
2023-05-01T03:54:20.179Z,94695.03
2023-05-01T03:56:21.852Z,94695.34
2023-05-01T03:58:23.511Z,94700.75
2023-05-01T04:00:25.294Z,94695.00
2023-05-01T04:02:27.731Z,94700.91
2023-05-01T04:04:30.078Z,94701.41
2023-05-01T04:06:32.668Z,94700.56
2023-05-01T04:08:34.304Z,94699.75
2023-05-01T04:10:36.213Z,94695.31
2023-05-01T04:12:37.799Z,94692.00
2023-05-01T04:14:39.406Z,94694.81
2023-05-01T04:16:41.334Z,94697.94
2023-05-01T04:18:43.286Z,94701.06
2023-05-01T04:20:44.899Z,94692.47
2023-05-01T04:22:46.595Z,94700.84
2023-05-01T04:24:48.230Z,94699.28
2023-05-01T04:26:50.470Z,94700.22
2023-05-01T04:28:52.597Z,94693.22
2023-05-01T04:30:54.201Z,94698.75
2023-05-01T04:32:55.912Z,94695.59
2023-05-01T04:34:57.959Z,94701.50
2023-05-01T04:36:59.602Z,94707.53
2023-05-01T04:39:01.369Z,94705.38
2023-05-01T04:41:03.363Z,94709.00
2023-05-01T04:43:05.292Z,94704.75
2023-05-01T04:45:07.112Z,94709.00
2023-05-01T04:47:09.363Z,94705.41
2023-05-01T04:49:11.749Z,94704.94
2023-05-01T04:51:13.529Z,94705.00
2023-05-01T04:53:15.365Z,94702.22
2023-05-01T04:55:17.473Z,94709.94
2023-05-01T04:57:19.190Z,94704.88
2023-05-01T04:59:20.837Z,94714.91
2023-05-01T05:01:22.566Z,94709.38
2023-05-01T05:03:24.293Z,94718.53
2023-05-01T05:05:26.042Z,94714.59
2023-05-01T05:07:27.646Z,94721.19
2023-05-01T05:09:29.254Z,94718.91
2023-05-01T05:11:31.117Z,94726.28
2023-05-01T05:13:32.716Z,94725.06
2023-05-01T05:15:34.294Z,94732.13
2023-05-01T05:17:35.994Z,94730.94
2023-05-01T05:19:37.612Z,94738.16
2023-05-01T05:21:39.202Z,94730.75
2023-05-01T05:23:41.248Z,94740.63
2023-05-01T05:25:42.834Z,94743.78
2023-05-01T05:27:44.478Z,94745.97
2023-05-01T05:29:46.068Z,94749.94
2023-05-01T05:31:47.735Z,94748.56
2023-05-01T05:33:49.390Z,94748.81
2023-05-01T05:35:52.338Z,94749.94
2023-05-01T05:37:54.695Z,94744.47
2023-05-01T05:39:57.088Z,94747.56
2023-05-01T05:41:59.013Z,94753.53
2023-05-01T05:44:00.622Z,94750.72
2023-05-01T05:46:02.427Z,94761.13
2023-05-01T05:48:04.647Z,94753.63
2023-05-01T05:50:07.495Z,94750.09
2023-05-01T05:52:09.124Z,94754.13
2023-05-01T05:54:11.392Z,94755.34
2023-05-01T05:56:12.961Z,94753.47
2023-05-01T05:58:20.218Z,94761.22
2023-05-01T06:00:22.010Z,94757.06
2023-05-01T06:02:23.663Z,94760.19
2023-05-01T06:04:25.300Z,94765.34
2023-05-01T06:06:27.756Z,94760.81
2023-05-01T06:08:29.463Z,94767.44
2023-05-01T06:10:31.233Z,94765.72
2023-05-01T06:12:34.086Z,94760.25
2023-05-01T06:14:37.936Z,94764.50
2023-05-01T06:16:39.662Z,94764.44
2023-05-01T06:18:42.873Z,94768.38
2023-05-01T06:20:45.850Z,94766.66
2023-05-01T06:22:47.572Z,94764.78
2023-05-01T06:24:49.307Z,94767.56
2023-05-01T06:26:50.902Z,94768.00
2023-05-01T06:28:52.570Z,94765.41
2023-05-01T06:30:54.212Z,94767.75
2023-05-01T06:32:55.979Z,94773.00
2023-05-01T06:34:57.638Z,94768.88
2023-05-01T06:36:59.244Z,94761.41
2023-05-01T06:39:00.859Z,94774.25
2023-05-01T06:41:02.486Z,94768.00
2023-05-01T06:43:04.646Z,94771.47
2023-05-01T06:45:07.544Z,94764.66
2023-05-01T06:47:09.516Z,94767.09
2023-05-01T06:49:11.195Z,94775.03
2023-05-01T06:53:35.225Z,94765.34
2023-05-01T06:55:36.835Z,94775.97
2023-05-01T06:57:40.006Z,94765.97
2023-05-01T06:59:41.646Z,94768.09
2023-05-01T07:01:43.324Z,94771.69
2023-05-01T07:03:45.077Z,94775.66
2023-05-01T07:05:46.745Z,94773.50
2023-05-01T07:07:58.049Z,94777.19
2023-05-01T07:10:02.643Z,94778.88
2023-05-01T07:12:05.806Z,94774.03
2023-05-01T07:14:07.441Z,94772.72
2023-05-01T07:16:09.062Z,94776.84
2023-05-01T07:18:12.612Z,94770.63
2023-05-01T07:20:16.836Z,94775.22
2023-05-01T07:22:19.458Z,94779.50
2023-05-01T07:24:21.434Z,94782.31
2023-05-01T07:26:23.783Z,94782.84
2023-05-01T07:28:25.506Z,94782.34
2023-05-01T07:30:27.128Z,94782.97
2023-05-01T07:32:28.757Z,94779.59
2023-05-01T07:34:30.810Z,94780.81
2023-05-01T07:36:33.953Z,94786.72
2023-05-01T07:38:35.505Z,94777.81
2023-05-01T07:40:38.534Z,94778.78
2023-05-01T07:42:40.358Z,94774.28
2023-05-01T07:44:42.016Z,94774.50
2023-05-01T07:46:43.625Z,94778.19
2023-05-01T07:48:45.198Z,94778.03
2023-05-01T07:50:46.956Z,94781.72
2023-05-01T07:52:48.615Z,94775.78
2023-05-01T07:54:51.217Z,94772.78
2023-05-01T07:56:52.840Z,94776.53
2023-05-01T07:58:54.470Z,94783.03
2023-05-01T08:00:56.071Z,94781.94
2023-05-01T08:02:57.684Z,94777.28
2023-05-01T08:04:59.393Z,94775.09
2023-05-01T08:07:01.034Z,94774.34
2023-05-01T08:09:02.705Z,94775.53
2023-05-01T08:11:04.285Z,94773.88
2023-05-01T08:13:05.906Z,94768.06
2023-05-01T08:15:08.205Z,94779.97
2023-05-01T08:17:09.800Z,94770.63
2023-05-01T08:19:11.420Z,94775.06
2023-05-01T08:21:13.024Z,94771.84
2023-05-01T08:23:15.817Z,94774.06
2023-05-01T08:25:17.391Z,94772.31
2023-05-01T08:27:19.084Z,94771.56
2023-05-01T08:29:20.730Z,94773.09
2023-05-01T08:31:22.877Z,94765.72
2023-05-01T08:33:24.639Z,94771.28
2023-05-01T08:35:26.761Z,94773.72
2023-05-01T08:37:28.351Z,94773.78
2023-05-01T08:39:29.942Z,94762.41
2023-05-01T08:41:32.708Z,94761.78
2023-05-01T08:43:34.292Z,94768.69
2023-05-01T08:45:37.933Z,94764.50
2023-05-01T08:47:40.612Z,94759.69
2023-05-01T08:49:43.014Z,94770.25
2023-05-01T08:51:47.506Z,94761.31
2023-05-01T08:53:52.432Z,94752.84
2023-05-01T08:55:56.589Z,94759.41
2023-05-01T08:57:59.748Z,94757.78
2023-05-01T09:00:01.780Z,94754.50
2023-05-01T09:02:05.546Z,94752.06
2023-05-01T09:04:09.266Z,94755.75
2023-05-01T09:06:11.644Z,94750.84
2023-05-01T09:08:13.251Z,94756.13
2023-05-01T09:10:16.567Z,94752.22
2023-05-01T09:12:18.171Z,94753.31
2023-05-01T09:14:19.884Z,94746.34
2023-05-01T09:16:22.123Z,94749.78
2023-05-01T09:18:24.202Z,94747.56
2023-05-01T09:20:25.973Z,94749.00
2023-05-01T09:22:27.540Z,94745.53
2023-05-01T09:24:29.983Z,94751.03
2023-05-01T09:26:34.227Z,94748.41
2023-05-01T09:28:45.240Z,94766.97
2023-05-01T09:30:46.910Z,94750.63
2023-05-01T09:33:04.610Z,94758.97
2023-05-01T09:35:11.395Z,94750.19
2023-05-01T09:37:15.083Z,94749.63
2023-05-01T09:39:22.830Z,94749.81
2023-05-01T09:41:24.535Z,94755.09
2023-05-01T09:43:29.908Z,94763.91
2023-05-01T09:45:31.577Z,94757.97
2023-05-01T09:47:34.403Z,94762.66
2023-05-01T09:49:45.053Z,94752.06
2023-05-01T09:51:47.064Z,94752.88
2023-05-01T09:53:49.250Z,94755.31
2023-05-01T09:56:03.029Z,94747.38
2023-05-01T09:58:05.112Z,94741.84
2023-05-01T10:00:10.211Z,94740.84
2023-05-01T10:02:28.912Z,94741.84
2023-05-01T10:04:35.096Z,94739.94
2023-05-01T10:06:37.139Z,94736.56
2023-05-01T10:08:49.335Z,94737.78
2023-05-01T10:11:03.461Z,94733.38
2023-05-01T10:13:17.569Z,94733.06
2023-05-01T10:15:26.030Z,94738.25
2023-05-01T10:17:28.722Z,94742.25
2023-05-01T10:19:31.079Z,94733.66
2023-05-01T10:21:33.598Z,94728.09
2023-05-01T10:23:35.272Z,94731.75
2023-05-01T10:25:37.286Z,94732.69
2023-05-01T10:27:40.666Z,94738.31
2023-05-01T10:29:42.706Z,94734.16
2023-05-01T10:31:44.307Z,94735.38
2023-05-01T10:33:46.855Z,94732.47
2023-05-01T10:35:56.309Z,94732.03
2023-05-01T10:38:26.134Z,94728.09
2023-05-01T10:40:40.144Z,94733.78
2023-05-01T10:43:17.170Z,94732.44
2023-05-01T10:45:29.852Z,94731.09
2023-05-01T10:47:31.871Z,94726.66
2023-05-01T10:50:09.341Z,94727.94
2023-05-01T10:52:10.960Z,94731.19
2023-05-01T10:54:12.532Z,94734.19
2023-05-01T10:56:32.308Z,94729.66
2023-05-01T10:58:36.768Z,94736.47
2023-05-01T11:00:38.382Z,94733.06
2023-05-01T11:02:40.083Z,94730.72
2023-05-01T11:04:53.417Z,94725.03
2023-05-01T11:07:11.300Z,94731.00
2023-05-01T11:09:42.676Z,94731.47
2023-05-01T11:11:44.265Z,94731.22
2023-05-01T11:14:02.061Z,94732.84
2023-05-01T11:16:46.510Z,94719.75
2023-05-01T11:18:48.246Z,94730.72
2023-05-01T11:20:49.993Z,94740.16
2023-05-01T11:22:53.052Z,94731.78
2023-05-01T11:24:55.101Z,94729.41
2023-05-01T11:27:00.040Z,94730.81
2023-05-01T11:29:02.012Z,94733.50
2023-05-01T11:31:03.770Z,94737.28
2023-05-01T11:33:08.381Z,94731.88
2023-05-01T11:35:21.927Z,94734.75
2023-05-01T11:37:45.322Z,94737.88
2023-05-01T11:39:52.201Z,94735.66
2023-05-01T11:42:07.172Z,94731.19
2023-05-01T11:44:11.963Z,94733.00
2023-05-01T11:46:13.957Z,94725.41
2023-05-01T11:48:18.783Z,94720.56
2023-05-01T11:50:22.073Z,94714.06
2023-05-01T11:52:23.675Z,94717.16
2023-05-01T11:54:26.451Z,94718.59
2023-05-01T11:56:28.348Z,94709.34
2023-05-01T11:58:34.030Z,94706.88
2023-05-01T12:00:42.587Z,94709.59
2023-05-01T12:03:01.519Z,94713.69
2023-05-01T12:05:18.629Z,94715.34
2023-05-01T12:07:23.909Z,94709.00
2023-05-01T12:09:29.674Z,94718.00
2023-05-01T12:11:31.289Z,94718.13
2023-05-01T12:13:32.936Z,94728.09
2023-05-01T12:15:37.337Z,94726.31
2023-05-01T12:17:39.036Z,94728.94
2023-05-01T12:19:49.785Z,94723.47
2023-05-01T12:22:08.460Z,94725.81
2023-05-01T12:24:10.749Z,94730.66
2023-05-01T12:26:25.371Z,94727.84
2023-05-01T12:28:27.823Z,94729.09
2023-05-01T12:30:29.883Z,94734.41
2023-05-01T12:32:32.396Z,94730.72
2023-05-01T12:34:34.362Z,94736.16
2023-05-01T12:36:37.283Z,94735.22
2023-05-01T12:38:39.011Z,94727.06
2023-05-01T12:40:53.770Z,94729.47
2023-05-01T12:42:58.920Z,94730.03
2023-05-01T12:45:01.458Z,94729.19
2023-05-01T12:47:06.716Z,94730.56
2023-05-01T12:49:08.259Z,94725.13
2023-05-01T12:51:09.987Z,94724.72
2023-05-01T12:53:11.715Z,94721.50
2023-05-01T12:55:13.672Z,94723.31
2023-05-01T12:57:16.380Z,94718.44
2023-05-01T12:59:26.386Z,94721.66
2023-05-01T13:01:28.882Z,94715.84
2023-05-01T13:03:31.257Z,94723.97
2023-05-01T13:05:32.967Z,94724.16
2023-05-01T13:07:36.117Z,94725.38
2023-05-01T13:09:37.745Z,94725.75
2023-05-01T13:11:39.404Z,94725.72
2023-05-01T13:13:41.294Z,94730.31
2023-05-01T13:15:42.898Z,94721.72
2023-05-01T13:17:44.607Z,94739.34
2023-05-01T13:19:54.526Z,94722.66
2023-05-01T13:21:58.152Z,94733.63
2023-05-01T13:24:00.968Z,94731.22
2023-05-01T13:26:03.552Z,94733.13
2023-05-01T13:28:05.238Z,94733.41
2023-05-01T13:30:07.796Z,94738.88
2023-05-01T13:32:11.118Z,94737.94
2023-05-01T13:34:25.545Z,94730.56
2023-05-01T13:36:32.973Z,94741.28
2023-05-01T13:38:42.871Z,94748.66
2023-05-01T13:40:44.476Z,94737.66
2023-05-01T13:42:46.738Z,94746.44
2023-05-01T13:44:54.595Z,94742.69
2023-05-01T13:46:56.316Z,94744.16
2023-05-01T13:48:59.111Z,94754.72
2023-05-01T13:51:00.680Z,94751.75
2023-05-01T13:53:02.484Z,94755.75
2023-05-01T13:55:07.200Z,94768.69
2023-05-01T13:57:09.781Z,94766.97
2023-05-01T13:59:11.322Z,94766.47
2023-05-01T14:01:20.834Z,94769.81
2023-05-01T14:03:22.873Z,94770.81
2023-05-01T14:05:28.999Z,94774.72
2023-05-01T14:07:30.663Z,94771.47
2023-05-01T14:09:35.837Z,94769.72
2023-05-01T14:11:48.087Z,94760.38
2023-05-01T14:13:51.144Z,94765.28
2023-05-01T14:15:53.261Z,94764.88
2023-05-01T14:17:54.846Z,94756.78
2023-05-01T14:19:56.529Z,94754.25
2023-05-01T14:21:58.107Z,94751.78
2023-05-01T14:24:00.393Z,94756.13
2023-05-01T14:26:02.054Z,94759.97
2023-05-01T14:28:07.891Z,94772.00
2023-05-01T14:30:14.344Z,94765.16
2023-05-01T14:32:18.709Z,94769.50
2023-05-01T14:34:20.676Z,94753.97
2023-05-01T14:36:22.419Z,94753.09
2023-05-01T14:38:24.606Z,94751.38
2023-05-01T14:40:27.718Z,94743.34
2023-05-01T14:42:31.568Z,94738.38
2023-05-01T14:44:33.188Z,94742.53
2023-05-01T14:46:36.404Z,94738.59
2023-05-01T14:48:41.468Z,94730.16
2023-05-01T14:50:43.048Z,94739.75
2023-05-01T14:52:45.034Z,94747.78
2023-05-01T14:54:46.960Z,94742.47
2023-05-01T14:56:48.933Z,94741.13
2023-05-01T14:58:50.648Z,94737.22
2023-05-01T15:00:52.253Z,94738.00
2023-05-01T15:02:58.784Z,94733.72
2023-05-01T15:05:00.696Z,94743.63
2023-05-01T15:07:02.537Z,94749.19
2023-05-01T15:09:07.071Z,94744.91
2023-05-01T15:11:09.492Z,94746.72
2023-05-01T15:13:11.116Z,94738.06
2023-05-01T15:15:12.810Z,94738.53
2023-05-01T15:17:14.428Z,94740.47
2023-05-01T15:19:16.018Z,94741.44
2023-05-01T15:21:18.319Z,94746.22
2023-05-01T15:23:20.223Z,94739.56
2023-05-01T15:25:21.877Z,94737.63
2023-05-01T15:27:23.421Z,94742.38
2023-05-01T15:29:25.074Z,94744.25
2023-05-01T15:31:26.762Z,94748.38
2023-05-01T15:33:47.186Z,94739.66
2023-05-01T15:35:51.076Z,94748.63
2023-05-01T15:37:53.533Z,94744.31
2023-05-01T15:39:55.132Z,94744.84
2023-05-01T15:41:56.686Z,94747.59
2023-05-01T15:43:58.591Z,94745.09
2023-05-01T15:46:00.444Z,94745.03
2023-05-01T15:48:02.271Z,94749.13
2023-05-01T15:50:04.580Z,94742.25
2023-05-01T15:52:06.317Z,94736.94
2023-05-01T15:54:07.887Z,94739.38
2023-05-01T15:56:09.853Z,94733.13
2023-05-01T15:58:11.673Z,94738.28
2023-05-01T16:00:14.672Z,94739.22
2023-05-01T16:02:16.479Z,94740.84
2023-05-01T16:04:18.157Z,94733.94
2023-05-01T16:06:19.780Z,94733.97
2023-05-01T16:08:21.407Z,94730.03
2023-05-01T16:10:23.536Z,94744.47
2023-05-01T16:12:27.647Z,94737.84
2023-05-01T16:14:29.316Z,94740.34
2023-05-01T16:16:31.647Z,94732.56
2023-05-01T16:18:33.206Z,94744.78
2023-05-01T16:20:39.786Z,94746.81
2023-05-01T16:22:42.987Z,94749.81
2023-05-01T16:24:44.640Z,94750.06
2023-05-01T16:26:46.402Z,94749.97
2023-05-01T16:28:48.418Z,94754.72
2023-05-01T16:30:50.033Z,94756.34
2023-05-01T16:32:51.767Z,94748.13
2023-05-01T16:34:53.408Z,94757.09
2023-05-01T16:36:56.484Z,94758.63
2023-05-01T16:38:58.061Z,94767.16
2023-05-01T16:40:59.610Z,94760.81
2023-05-01T16:43:02.595Z,94763.41
2023-05-01T16:45:08.564Z,94765.13
2023-05-01T16:47:12.001Z,94777.16
2023-05-01T16:49:16.360Z,94776.69
2023-05-01T16:51:18.953Z,94779.97
2023-05-01T16:53:21.500Z,94778.22
2023-05-01T16:55:23.294Z,94774.38
2023-05-01T16:57:24.975Z,94784.16
2023-05-01T16:59:28.159Z,94786.00
2023-05-01T17:01:29.987Z,94788.28
2023-05-01T17:03:31.603Z,94789.31
2023-05-01T17:05:33.169Z,94781.16
2023-05-01T17:07:34.770Z,94781.97
2023-05-01T17:09:36.324Z,94773.19
2023-05-01T17:11:38.014Z,94787.31
2023-05-01T17:13:39.568Z,94786.09
2023-05-01T17:15:41.823Z,94791.19
2023-05-01T17:17:43.698Z,94789.19
2023-05-01T17:19:45.329Z,94795.31
2023-05-01T17:21:46.901Z,94794.69
2023-05-01T17:23:48.512Z,94791.84
2023-05-01T17:25:50.168Z,94798.59
2023-05-01T17:27:51.749Z,94798.16
2023-05-01T17:29:53.353Z,94795.50
2023-05-01T17:31:55.028Z,94800.81
2023-05-01T17:33:56.652Z,94803.28
2023-05-01T17:36:00.727Z,94812.22
2023-05-01T17:38:02.331Z,94816.09
2023-05-01T17:40:05.084Z,94818.97
2023-05-01T17:42:06.798Z,94811.00
2023-05-01T17:44:08.361Z,94821.59
2023-05-01T17:46:10.535Z,94813.84
2023-05-01T17:48:12.532Z,94825.66
2023-05-01T17:50:14.348Z,94818.53
2023-05-01T17:52:15.925Z,94830.53
2023-05-01T17:54:17.718Z,94831.34
2023-05-01T17:56:19.289Z,94830.47
2023-05-01T17:58:20.969Z,94838.41
2023-05-01T18:00:23.104Z,94834.72
2023-05-01T18:02:26.196Z,94837.59
2023-05-01T18:04:28.281Z,94834.72
2023-05-01T18:06:30.010Z,94834.72
2023-05-01T18:08:31.724Z,94840.84
2023-05-01T18:10:33.798Z,94845.72
2023-05-01T18:12:35.448Z,94845.91
2023-05-01T18:14:37.449Z,94851.41
2023-05-01T18:16:39.125Z,94848.34
2023-05-01T18:18:41.349Z,94858.34
2023-05-01T18:20:43.031Z,94855.50
2023-05-01T18:22:45.341Z,94862.59
2023-05-01T18:24:47.600Z,94855.88
2023-05-01T18:26:49.277Z,94860.75
2023-05-01T18:28:50.881Z,94868.69
2023-05-01T18:30:52.498Z,94863.75
2023-05-01T18:32:54.167Z,94865.13
2023-05-01T18:34:55.890Z,94866.72
2023-05-01T18:36:57.485Z,94869.75
2023-05-01T18:38:59.173Z,94870.34
2023-05-01T18:41:00.801Z,94875.81
2023-05-01T18:43:02.401Z,94876.00
2023-05-01T18:45:04.443Z,94884.56
2023-05-01T18:47:06.088Z,94883.13
2023-05-01T18:49:07.764Z,94885.97
2023-05-01T18:51:09.715Z,94886.78
2023-05-01T18:53:11.399Z,94890.16
2023-05-01T18:55:13.176Z,94899.28
2023-05-01T18:57:14.792Z,94895.31
2023-05-01T18:59:19.303Z,94890.03
2023-05-01T19:01:21.506Z,94896.75
2023-05-01T19:03:23.145Z,94898.53
2023-05-01T19:05:25.194Z,94900.00
2023-05-01T19:07:26.885Z,94901.63
2023-05-01T19:09:28.464Z,94910.38
2023-05-01T19:11:31.934Z,94908.94
2023-05-01T19:13:33.942Z,94903.03
2023-05-01T19:15:36.305Z,94902.56
2023-05-01T19:17:37.984Z,94901.75
2023-05-01T19:19:39.802Z,94910.16
2023-05-01T19:21:41.457Z,94917.91
2023-05-01T19:23:43.291Z,94911.34
2023-05-01T19:25:44.926Z,94919.06
2023-05-01T19:27:46.696Z,94916.63
2023-05-01T19:29:48.408Z,94919.91
2023-05-01T19:31:50.339Z,94924.19
2023-05-01T19:33:53.852Z,94922.16
2023-05-01T19:35:55.793Z,94920.53
2023-05-01T19:37:58.242Z,94923.38
2023-05-01T19:40:00.138Z,94921.72
2023-05-01T19:42:21.055Z,94918.44
2023-05-01T19:44:22.657Z,94916.78
2023-05-01T19:46:24.396Z,94913.69
2023-05-01T19:48:26.066Z,94920.00
2023-05-01T19:50:27.634Z,94921.44
2023-05-01T19:52:30.376Z,94921.03
2023-05-01T19:54:32.006Z,94914.25
2023-05-01T19:56:34.560Z,94922.31
2023-05-01T19:58:36.833Z,94913.97
2023-05-01T20:00:38.694Z,94918.09
2023-05-01T20:02:41.665Z,94914.03
2023-05-01T20:04:43.460Z,94919.66
2023-05-01T20:06:45.234Z,94918.03
2023-05-01T20:08:47.213Z,94918.84
2023-05-01T20:10:48.790Z,94917.28
2023-05-01T20:12:50.520Z,94919.31
2023-05-01T20:14:52.136Z,94921.31
2023-05-01T20:16:53.912Z,94920.47
2023-05-01T20:18:56.379Z,94921.31
2023-05-01T20:20:58.082Z,94918.69
2023-05-01T20:23:13.613Z,94915.97
2023-05-01T20:25:15.397Z,94915.91
2023-05-01T20:27:16.985Z,94915.63
2023-05-01T20:29:18.597Z,94923.19
2023-05-01T20:31:20.214Z,94923.56
2023-05-01T20:33:21.886Z,94924.38
2023-05-01T20:35:23.702Z,94926.38
2023-05-01T20:37:25.623Z,94929.47
2023-05-01T20:39:27.187Z,94932.50
2023-05-01T20:41:29.373Z,94928.22
2023-05-01T20:43:30.969Z,94928.59
2023-05-01T20:45:32.821Z,94924.50
2023-05-01T20:47:34.659Z,94929.59
2023-05-01T20:49:36.277Z,94934.44
2023-05-01T20:51:39.181Z,94937.25
2023-05-01T20:53:41.212Z,94923.03
2023-05-01T20:55:42.802Z,94926.13
2023-05-01T20:57:44.438Z,94925.03
2023-05-01T20:59:49.826Z,94922.31
2023-05-01T21:01:51.510Z,94925.09
2023-05-01T21:03:53.249Z,94917.69
2023-05-01T21:05:59.000Z,94928.44
2023-05-01T21:08:02.190Z,94931.91
2023-05-01T21:10:08.907Z,94929.25
2023-05-01T21:12:10.757Z,94928.09
2023-05-01T21:14:12.366Z,94937.94
2023-05-01T21:16:17.505Z,94934.72
2023-05-01T21:18:20.482Z,94937.19
2023-05-01T21:20:32.879Z,94938.00
2023-05-01T21:22:34.672Z,94938.38
2023-05-01T21:24:39.267Z,94940.38
2023-05-01T21:26:40.852Z,94937.66
2023-05-01T21:28:43.630Z,94937.66
2023-05-01T21:30:45.414Z,94936.81
2023-05-01T21:32:47.518Z,94938.16
2023-05-01T21:34:53.138Z,94932.38
2023-05-01T21:36:54.767Z,94940.75
2023-05-01T21:38:56.488Z,94941.75
2023-05-01T21:40:58.071Z,94938.16
2023-05-01T21:43:00.449Z,94941.38
2023-05-01T21:45:10.254Z,94943.38
2023-05-01T21:47:12.866Z,94950.31
2023-05-01T21:49:18.668Z,94946.56
2023-05-01T21:51:26.929Z,94957.44
2023-05-01T21:53:29.966Z,94956.78
2023-05-01T21:55:31.594Z,94953.69
2023-05-01T21:57:37.239Z,94961.97
2023-05-01T21:59:39.151Z,94964.22
2023-05-01T22:01:41.337Z,94961.78
2023-05-01T22:03:44.584Z,94965.41
2023-05-01T22:05:46.368Z,94973.34
2023-05-01T22:07:48.426Z,94978.97
2023-05-01T22:09:50.326Z,94983.91
2023-05-01T22:11:51.898Z,94985.91
2023-05-01T22:13:53.534Z,94984.25
2023-05-01T22:15:55.138Z,94995.25
2023-05-01T22:17:56.827Z,94986.06
2023-05-01T22:19:58.671Z,94988.28
2023-05-01T22:22:00.697Z,94987.31
2023-05-01T22:24:03.122Z,94987.69
2023-05-01T22:26:04.939Z,94983.88
2023-05-01T22:28:06.550Z,94983.69
2023-05-01T22:30:08.568Z,94981.88
2023-05-01T22:32:10.254Z,94980.44
2023-05-01T22:34:11.913Z,94969.41
2023-05-01T22:36:13.916Z,94973.06
2023-05-01T22:38:15.501Z,94974.59
2023-05-01T22:40:17.243Z,94970.00
2023-05-01T22:42:18.877Z,94969.28
2023-05-01T22:44:22.432Z,94970.19
2023-05-01T22:46:25.069Z,94962.13
2023-05-01T22:48:26.685Z,94958.41
2023-05-01T22:50:28.358Z,94966.84
2023-05-01T22:52:29.953Z,94968.00
2023-05-01T22:54:31.591Z,94961.91
2023-05-01T22:56:33.169Z,94962.41
2023-05-01T22:58:36.347Z,94960.69
2023-05-01T23:00:37.940Z,94957.69
2023-05-01T23:02:39.803Z,94957.16
2023-05-01T23:04:42.070Z,94953.34
2023-05-01T23:06:44.671Z,94952.69
2023-05-01T23:08:46.501Z,94957.16
2023-05-01T23:10:48.126Z,94955.34
2023-05-01T23:12:49.773Z,94959.63
2023-05-01T23:14:51.701Z,94958.34
2023-05-01T23:16:53.391Z,94953.88
2023-05-01T23:18:56.031Z,94955.50
2023-05-01T23:20:58.003Z,94949.41
2023-05-01T23:22:59.674Z,94946.63
2023-05-01T23:25:01.298Z,94943.50
2023-05-01T23:27:02.917Z,94948.59
2023-05-01T23:29:07.028Z,94944.31
2023-05-01T23:31:18.820Z,94941.56
2023-05-01T23:33:21.483Z,94941.00
2023-05-01T23:35:23.907Z,94942.16
2023-05-01T23:37:25.701Z,94943.63
2023-05-01T23:39:27.305Z,94939.84
2023-05-01T23:41:28.856Z,94946.91
2023-05-01T23:43:30.458Z,94943.94
2023-05-01T23:45:32.123Z,94932.91
2023-05-01T23:47:33.892Z,94932.66
2023-05-01T23:49:35.510Z,94931.16
2023-05-01T23:51:37.146Z,94930.72
2023-05-01T23:53:38.749Z,94933.25
2023-05-01T23:55:42.669Z,94933.09
2023-05-01T23:57:45.417Z,94936.00
2023-05-01T23:59:46.989Z,94935.84
